Time;durP1;ratioP1;P1;durP2;ratioP2;P2;SDS_P1;SDS_P2;PMS_P1;PMS_P2;Temp;Humidity;BMP_temperature;BMP_pressure;BME280_temperature;BME280_humidity;BME280_pressure;Samples;Min_cycle;Max_cycle;Signal;HPM_P1;HPM_P2
2022/01/19 00:00:21;;;;;;;4.67;2.17;;;;;;;;;;5058778;28;21353;-69
2022/01/19 00:03:10;;;;;;;2.40;2.10;;;;;;;;;;5063151;28;20208;-69
2022/01/19 00:05:57;;;;;;;2.53;2.13;;;;;;;;;;5062403;28;20705;-69
2022/01/19 00:08:44;;;;;;;3.53;2.27;;;;;;;;;;5058997;28;20199;-69
2022/01/19 00:11:31;;;;;;;3.37;2.10;;;;;;;;;;5056373;28;20268;-69
2022/01/19 00:14:18;;;;;;;3.33;2.10;;;;;;;;;;5060030;28;20621;-69
2022/01/19 00:17:05;;;;;;;3.27;2.47;;;;;;;;;;5061305;28;20705;-69
2022/01/19 00:19:53;;;;;;;3.77;2.57;;;;;;;;;;5060296;28;20667;-69
2022/01/19 00:22:40;;;;;;;3.33;2.07;;;;;;;;;;5058628;28;20334;-69
2022/01/19 00:25:28;;;;;;;3.07;2.10;;;;;;;;;;5059811;28;20290;-69
2022/01/19 00:28:15;;;;;;;2.43;2.00;;;;;;;;;;5061464;28;20228;-69
2022/01/19 00:31:02;;;;;;;3.53;2.00;;;;;;;;;;5060619;28;20265;-69
2022/01/19 00:33:49;;;;;;;2.40;1.93;;;;;;;;;;5057675;28;20323;-69
2022/01/19 00:36:37;;;;;;;2.93;1.90;;;;;;;;;;5059289;28;20283;-69
2022/01/19 00:39:29;;;;;;;2.60;2.20;;;;;;;;;;5061552;28;20311;-69
2022/01/19 00:42:16;;;;;;;2.83;1.80;;;;;;;;;;5059898;28;20580;-69
2022/01/19 00:45:05;;;;;;;3.83;2.47;;;;;;;;;;5060800;28;20250;-70
2022/01/19 00:47:53;;;;;;;4.07;2.20;;;;;;;;;;5067710;28;20706;-70
2022/01/19 00:50:40;;;;;;;3.57;2.10;;;;;;;;;;5060762;28;20297;-69
2022/01/19 00:53:28;;;;;;;4.80;2.47;;;;;;;;;;5060878;28;20346;-69
2022/01/19 00:56:15;;;;;;;3.30;2.07;;;;;;;;;;5065072;28;20320;-69
2022/01/19 00:59:02;;;;;;;4.53;1.97;;;;;;;;;;5060929;28;20224;-69
2022/01/19 01:01:49;;;;;;;2.60;1.97;;;;;;;;;;5057363;28;20215;-70
2022/01/19 01:04:36;;;;;;;4.27;2.20;;;;;;;;;;5060385;28;20348;-70
2022/01/19 01:07:23;;;;;;;2.73;2.10;;;;;;;;;;5062155;28;20294;-69
2022/01/19 01:10:15;;;;;;;4.50;2.03;;;;;;;;;;5061566;28;20243;-69
2022/01/19 01:13:20;;;;;;;3.03;1.90;;;;;;;;;;5063055;28;20260;-69
2022/01/19 01:16:17;;;;;;;4.33;2.50;;;;;;;;;;5058760;28;20585;-70
2022/01/19 01:19:06;;;;;;;3.23;2.23;;;;;;;;;;5055224;28;20255;-69
2022/01/19 01:21:53;;;;;;;3.37;2.20;;;;;;;;;;5060666;28;20269;-67
2022/01/19 01:24:40;;;;;;;2.47;1.93;;;;;;;;;;5057959;28;20235;-69
2022/01/19 01:27:28;;;;;;;2.70;1.90;;;;;;;;;;5060936;28;20224;-69
2022/01/19 01:30:15;;;;;;;2.13;1.70;;;;;;;;;;5060152;28;20686;-70
2022/01/19 01:33:02;;;;;;;2.80;1.90;;;;;;;;;;5059613;28;20601;-70
2022/01/19 01:35:49;;;;;;;2.77;2.03;;;;;;;;;;5062708;28;20210;-70
2022/01/19 01:38:37;;;;;;;3.97;2.10;;;;;;;;;;5058558;28;20220;-70
2022/01/19 01:41:23;;;;;;;2.53;2.00;;;;;;;;;;5062972;28;20215;-69
2022/01/19 01:44:12;;;;;;;3.83;2.30;;;;;;;;;;5059128;28;20272;-69
2022/01/19 01:47:00;;;;;;;3.70;2.30;;;;;;;;;;5061533;28;20685;-69
2022/01/19 01:53:26;;;;;;;2.40;2.00;;;;;;;;;;5059335;28;20208;-69
2022/01/19 01:56:01;;;;;;;2.57;2.00;;;;;;;;;;5060653;28;20211;-70
2022/01/19 01:58:50;;;;;;;2.93;2.03;;;;;;;;;;5058713;28;20310;-69
2022/01/19 02:01:40;;;;;;;3.03;2.30;;;;;;;;;;5060424;28;20231;-69
2022/01/19 02:04:30;;;;;;;2.30;2.07;;;;;;;;;;5058714;28;20211;-70
2022/01/19 02:10:31;;;;;;;3.90;2.40;;;;;;;;;;5060554;28;20573;-69
2022/01/19 02:16:31;;;;;;;3.23;2.27;;;;;;;;;;5061093;28;20207;-69
2022/01/19 02:22:31;;;;;;;2.90;2.17;;;;;;;;;;5061287;28;20203;-69
2022/01/19 02:25:18;;;;;;;2.60;1.90;;;;;;;;;;5059319;28;20211;-69
2022/01/19 02:40:35;;;;;;;3.37;2.00;;;;;;;;;;5062391;28;20222;-69
2022/01/19 02:43:25;;;;;;;2.63;1.80;;;;;;;;;;5056911;28;20215;-69
2022/01/19 02:49:18;;;;;;;3.00;2.10;;;;;;;;;;5061662;28;20273;-70
2022/01/19 02:52:05;;;;;;;3.30;1.90;;;;;;;;;;5060783;28;20587;-70
2022/01/19 02:54:53;;;;;;;2.13;1.93;;;;;;;;;;5059617;28;20246;-70
2022/01/19 02:57:42;;;;;;;3.47;2.10;;;;;;;;;;5055778;28;20215;-69
2022/01/19 03:09:43;;;;;;;3.10;2.10;;;;;;;;;;5061414;28;20199;-69
2022/01/19 03:12:30;;;;;;;2.93;2.13;;;;;;;;;;5060452;28;20250;-70
2022/01/19 03:15:18;;;;;;;2.17;1.90;;;;;;;;;;5058097;28;20605;-69
2022/01/19 03:18:05;;;;;;;3.57;1.83;;;;;;;;;;5058109;28;20207;-70
2022/01/19 03:20:52;;;;;;;2.47;1.87;;;;;;;;;;5060782;28;20781;-70
2022/01/19 03:23:39;;;;;;;3.97;2.10;;;;;;;;;;5058641;28;20265;-70
2022/01/19 03:26:27;;;;;;;3.23;2.13;;;;;;;;;;5055531;28;20309;-69
2022/01/19 03:29:14;;;;;;;2.63;2.13;;;;;;;;;;5056813;28;20210;-69
2022/01/19 03:32:03;;;;;;;2.67;1.93;;;;;;;;;;5058794;28;20695;-69
2022/01/19 03:34:50;;;;;;;2.10;1.90;;;;;;;;;;5060542;28;20231;-69
2022/01/19 03:37:37;;;;;;;3.50;2.10;;;;;;;;;;5061461;28;20203;-69
2022/01/19 03:40:24;;;;;;;3.07;2.00;;;;;;;;;;5057685;28;20225;-70
2022/01/19 03:43:11;;;;;;;2.00;1.87;;;;;;;;;;5057927;28;20295;-70
2022/01/19 03:46:00;;;;;;;2.17;1.63;;;;;;;;;;5053339;28;20219;-69
2022/01/19 03:48:55;;;;;;;3.00;1.80;;;;;;;;;;5057003;28;20290;-70
2022/01/19 03:51:41;;;;;;;2.13;1.93;;;;;;;;;;5058289;28;20219;-69
2022/01/19 03:54:29;;;;;;;2.93;1.90;;;;;;;;;;5055513;28;20286;-70
2022/01/19 03:57:16;;;;;;;2.07;1.90;;;;;;;;;;5059894;28;20298;-69
2022/01/19 04:00:05;;;;;;;2.43;1.80;;;;;;;;;;5059199;28;20235;-70
2022/01/19 04:02:51;;;;;;;3.00;2.10;;;;;;;;;;5062269;28;20215;-69
2022/01/19 04:05:53;;;;;;;3.80;2.23;;;;;;;;;;5061082;28;20215;-69
2022/01/19 04:08:39;;;;;;;2.50;2.00;;;;;;;;;;5062276;28;20199;-69
2022/01/19 04:11:26;;;;;;;3.27;2.13;;;;;;;;;;5060266;28;20632;-69
2022/01/19 04:14:22;;;;;;;3.43;1.80;;;;;;;;;;5058933;28;20613;-69
2022/01/19 04:17:12;;;;;;;3.20;2.07;;;;;;;;;;5063617;28;20207;-69
2022/01/19 04:19:59;;;;;;;2.27;1.90;;;;;;;;;;5056468;28;20225;-69
2022/01/19 04:22:47;;;;;;;3.30;1.90;;;;;;;;;;5061330;28;20284;-70
2022/01/19 04:25:34;;;;;;;5.40;2.10;;;;;;;;;;5060677;28;20269;-69
2022/01/19 04:28:21;;;;;;;2.23;1.90;;;;;;;;;;5059816;28;20286;-69
2022/01/19 04:31:08;;;;;;;2.80;2.10;;;;;;;;;;5057172;28;20349;-70
2022/01/19 04:34:00;;;;;;;2.27;2.07;;;;;;;;;;5063400;28;20803;-69
2022/01/19 04:37:22;;;;;;;4.27;2.37;;;;;;;;;;5062865;28;20323;-70
2022/01/19 04:46:59;;;;;;;2.50;1.83;;;;;;;;;;5063472;28;20576;-69
2022/01/19 05:02:04;;;;;;;3.13;2.37;;;;;;;;;;5058874;28;20598;-70
2022/01/19 05:04:56;;;;;;;2.77;2.20;;;;;;;;;;5060303;28;20276;-69
2022/01/19 05:07:53;;;;;;;4.07;2.23;;;;;;;;;;5057345;28;20215;-70
2022/01/19 05:13:51;;;;;;;2.97;2.20;;;;;;;;;;5058525;28;20286;-70
2022/01/19 05:16:38;;;;;;;2.93;2.50;;;;;;;;;;5062363;28;20703;-70
2022/01/19 05:19:25;;;;;;;2.27;2.00;;;;;;;;;;5058765;28;20566;-70
2022/01/19 05:22:12;;;;;;;4.67;2.30;;;;;;;;;;5057493;28;20683;-70
2022/01/19 05:24:59;;;;;;;3.53;2.33;;;;;;;;;;5058626;28;20601;-70
2022/01/19 05:27:46;;;;;;;2.50;1.87;;;;;;;;;;5058831;28;20318;-70
2022/01/19 05:30:34;;;;;;;2.37;2.03;;;;;;;;;;5065299;28;20333;-70
2022/01/19 05:33:21;;;;;;;2.87;2.37;;;;;;;;;;5060047;28;20362;-70
2022/01/19 05:36:08;;;;;;;3.27;2.13;;;;;;;;;;5059927;28;20298;-71
2022/01/19 05:38:55;;;;;;;3.00;2.30;;;;;;;;;;5061558;28;20341;-71
2022/01/19 05:41:42;;;;;;;2.93;2.03;;;;;;;;;;5056202;28;20200;-71
2022/01/19 05:44:29;;;;;;;5.23;2.57;;;;;;;;;;5060048;28;20367;-70
2022/01/19 05:47:17;;;;;;;3.27;2.20;;;;;;;;;;5065262;28;20286;-70
2022/01/19 05:50:05;;;;;;;3.83;2.40;;;;;;;;;;5044873;28;20207;-70
2022/01/19 05:52:52;;;;;;;3.23;2.40;;;;;;;;;;5061683;28;20250;-70
2022/01/19 05:55:39;;;;;;;2.43;2.20;;;;;;;;;;5063525;28;20238;-70
2022/01/19 05:58:26;;;;;;;4.00;2.50;;;;;;;;;;5059453;28;20988;-71
2022/01/19 06:01:13;;;;;;;2.70;2.40;;;;;;;;;;5058369;28;20818;-70
2022/01/19 06:04:01;;;;;;;3.20;2.73;;;;;;;;;;5058530;28;20339;-70
2022/01/19 06:06:49;;;;;;;4.33;2.40;;;;;;;;;;5056080;28;20653;-70
2022/01/19 06:09:48;;;;;;;4.07;2.07;;;;;;;;;;5057260;28;20286;-70
2022/01/19 06:12:35;;;;;;;3.13;2.53;;;;;;;;;;5062439;28;20211;-70
2022/01/19 06:15:23;;;;;;;2.80;2.27;;;;;;;;;;5056968;28;20208;-71
2022/01/19 06:18:10;;;;;;;3.40;2.50;;;;;;;;;;5060627;28;20293;-70
2022/01/19 06:20:58;;;;;;;4.50;2.70;;;;;;;;;;5057823;28;20457;-71
2022/01/19 06:23:45;;;;;;;2.60;2.40;;;;;;;;;;5046658;28;20211;-70
2022/01/19 06:26:33;;;;;;;3.40;2.60;;;;;;;;;;5061176;28;20289;-71
2022/01/19 06:29:20;;;;;;;4.10;2.30;;;;;;;;;;5060087;28;20234;-71
2022/01/19 06:32:07;;;;;;;2.60;2.40;;;;;;;;;;5058313;28;20204;-71
2022/01/19 06:34:54;;;;;;;3.23;2.43;;;;;;;;;;5057842;28;20304;-70
2022/01/19 06:37:43;;;;;;;3.77;2.10;;;;;;;;;;5060026;28;20332;-71
2022/01/19 06:40:30;;;;;;;3.00;2.40;;;;;;;;;;5058409;28;20223;-71
2022/01/19 06:43:16;;;;;;;3.13;2.47;;;;;;;;;;5058871;28;20282;-70
2022/01/19 06:46:03;;;;;;;3.63;2.60;;;;;;;;;;5058497;28;20613;-70
2022/01/19 06:48:51;;;;;;;2.97;2.60;;;;;;;;;;5057831;28;20293;-71
2022/01/19 06:51:38;;;;;;;3.33;2.40;;;;;;;;;;5059133;28;20335;-70
2022/01/19 06:54:26;;;;;;;3.87;2.73;;;;;;;;;;5060494;28;20207;-70
2022/01/19 06:57:13;;;;;;;3.90;2.30;;;;;;;;;;5058546;28;20293;-71
2022/01/19 07:00:01;;;;;;;2.83;2.27;;;;;;;;;;5059543;28;20304;-71
2022/01/19 07:02:47;;;;;;;3.37;2.43;;;;;;;;;;5052528;28;20210;-71
2022/01/19 07:05:34;;;;;;;2.87;2.60;;;;;;;;;;5055323;28;20328;-71
2022/01/19 07:08:21;;;;;;;2.73;2.03;;;;;;;;;;5056959;28;20293;-70
2022/01/19 07:11:10;;;;;;;3.70;2.43;;;;;;;;;;5058844;28;20265;-71
2022/01/19 07:13:58;;;;;;;3.27;2.20;;;;;;;;;;5053648;28;20292;-70
2022/01/19 07:16:45;;;;;;;2.73;2.37;;;;;;;;;;5056347;28;20192;-71
2022/01/19 07:19:32;;;;;;;3.23;2.57;;;;;;;;;;5058736;28;20580;-70
2022/01/19 07:22:19;;;;;;;3.40;2.43;;;;;;;;;;5058766;28;20285;-71
2022/01/19 07:25:07;;;;;;;4.00;2.70;;;;;;;;;;5051263;28;20667;-70
2022/01/19 07:27:55;;;;;;;4.30;2.90;;;;;;;;;;5053049;28;20308;-71
2022/01/19 07:30:42;;;;;;;2.57;2.30;;;;;;;;;;5057485;28;20278;-71
2022/01/19 07:33:29;;;;;;;2.80;2.13;;;;;;;;;;5057376;28;20339;-70
2022/01/19 07:36:17;;;;;;;3.50;2.20;;;;;;;;;;5054539;28;20291;-70
2022/01/19 07:39:04;;;;;;;3.10;2.17;;;;;;;;;;5062087;28;20199;-71
2022/01/19 07:41:53;;;;;;;2.90;2.10;;;;;;;;;;5058925;28;20686;-71
2022/01/19 07:44:41;;;;;;;4.13;2.77;;;;;;;;;;5062430;28;20203;-71
2022/01/19 07:47:28;;;;;;;3.00;2.50;;;;;;;;;;5059445;28;20298;-71
2022/01/19 07:50:15;;;;;;;2.67;2.20;;;;;;;;;;5060591;28;20207;-71
2022/01/19 07:53:02;;;;;;;2.90;2.00;;;;;;;;;;5057177;28;20303;-71
2022/01/19 07:55:50;;;;;;;3.97;2.30;;;;;;;;;;5052012;28;20240;-70
2022/01/19 07:58:37;;;;;;;3.00;2.50;;;;;;;;;;5063193;28;20215;-70
2022/01/19 08:01:27;;;;;;;3.07;2.50;;;;;;;;;;5061095;28;20256;-71
2022/01/19 08:04:14;;;;;;;5.00;2.40;;;;;;;;;;5062316;28;20207;-71
2022/01/19 08:07:01;;;;;;;2.87;2.27;;;;;;;;;;5061892;28;20210;-71
2022/01/19 08:09:48;;;;;;;4.90;2.60;;;;;;;;;;5059621;28;20340;-71
2022/01/19 08:12:35;;;;;;;2.80;2.40;;;;;;;;;;5058974;28;20326;-71
2022/01/19 08:15:22;;;;;;;3.60;2.43;;;;;;;;;;5062587;28;20195;-71
2022/01/19 08:18:10;;;;;;;2.77;2.33;;;;;;;;;;5059435;28;21078;-71
2022/01/19 08:20:57;;;;;;;2.53;2.33;;;;;;;;;;5057361;28;20306;-71
2022/01/19 08:23:44;;;;;;;2.60;2.33;;;;;;;;;;5061921;28;20286;-71
2022/01/19 08:26:31;;;;;;;3.27;2.30;;;;;;;;;;5061297;28;20238;-71
2022/01/19 08:29:18;;;;;;;3.60;2.50;;;;;;;;;;5050818;28;20330;-69
2022/01/19 08:32:06;;;;;;;3.00;2.30;;;;;;;;;;5061524;28;20319;-71
2022/01/19 08:34:55;;;;;;;3.20;2.27;;;;;;;;;;5060532;28;20313;-71
2022/01/19 08:37:42;;;;;;;2.67;2.23;;;;;;;;;;5063252;28;20204;-71
2022/01/19 08:40:30;;;;;;;3.57;2.47;;;;;;;;;;5061071;28;20279;-71
2022/01/19 08:43:17;;;;;;;2.87;2.27;;;;;;;;;;5059336;28;20203;-71
2022/01/19 08:46:04;;;;;;;4.80;2.77;;;;;;;;;;5061146;28;20705;-71
2022/01/19 08:48:51;;;;;;;3.47;2.30;;;;;;;;;;5056234;28;20232;-70
2022/01/19 08:51:39;;;;;;;2.93;2.13;;;;;;;;;;5052488;28;20243;-71
2022/01/19 08:54:26;;;;;;;2.73;1.90;;;;;;;;;;5054335;28;20742;-71
2022/01/19 08:57:13;;;;;;;4.27;2.13;;;;;;;;;;5059696;28;20210;-72
2022/01/19 09:00:00;;;;;;;2.73;1.90;;;;;;;;;;5059496;28;20325;-71
2022/01/19 09:02:47;;;;;;;4.67;2.40;;;;;;;;;;5065152;28;20302;-71
2022/01/19 09:05:34;;;;;;;3.13;2.40;;;;;;;;;;5061313;28;20330;-69
2022/01/19 09:08:23;;;;;;;2.47;2.27;;;;;;;;;;5057136;28;20237;-71
2022/01/19 09:11:11;;;;;;;2.97;2.33;;;;;;;;;;5060553;28;20231;-71
2022/01/19 09:14:00;;;;;;;4.20;2.70;;;;;;;;;;5057981;28;20212;-71
2022/01/19 09:16:49;;;;;;;4.67;2.27;;;;;;;;;;5061881;28;20204;-71
2022/01/19 09:19:39;;;;;;;3.57;2.23;;;;;;;;;;5060838;28;20293;-71
2022/01/19 09:22:26;;;;;;;4.50;2.53;;;;;;;;;;5061190;28;20253;-70
2022/01/19 09:25:14;;;;;;;3.23;2.40;;;;;;;;;;5056346;28;20892;-71
2022/01/19 09:28:01;;;;;;;4.53;2.33;;;;;;;;;;5060150;28;20234;-71
2022/01/19 09:30:49;;;;;;;1.97;1.83;;;;;;;;;;5062554;28;20278;-71
2022/01/19 09:33:36;;;;;;;3.03;2.00;;;;;;;;;;5057289;28;20239;-71
2022/01/19 09:36:34;;;;;;;4.03;2.30;;;;;;;;;;5057953;28;20207;-71
2022/01/19 09:39:22;;;;;;;3.20;2.37;;;;;;;;;;5057373;28;20688;-71
2022/01/19 09:42:11;;;;;;;2.60;2.00;;;;;;;;;;5056126;28;20232;-71
2022/01/19 09:44:58;;;;;;;5.43;2.90;;;;;;;;;;5059257;28;20288;-71
2022/01/19 09:47:45;;;;;;;4.20;2.40;;;;;;;;;;5057809;28;20289;-71
2022/01/19 09:50:32;;;;;;;2.33;1.80;;;;;;;;;;5062461;28;20248;-71
2022/01/19 09:53:19;;;;;;;4.40;2.70;;;;;;;;;;5053144;28;20750;-70
2022/01/19 09:56:06;;;;;;;3.27;2.20;;;;;;;;;;5060516;28;20238;-71
2022/01/19 09:58:54;;;;;;;4.07;2.23;;;;;;;;;;5058356;28;20241;-71
2022/01/19 10:01:49;;;;;;;4.13;2.33;;;;;;;;;;5058760;28;20782;-71
2022/01/19 10:04:38;;;;;;;3.03;2.30;;;;;;;;;;5061054;28;20300;-71
2022/01/19 10:07:28;;;;;;;3.87;2.53;;;;;;;;;;5057318;28;20211;-71
2022/01/19 10:10:16;;;;;;;4.77;2.50;;;;;;;;;;5057036;28;20235;-70
2022/01/19 10:19:18;;;;;;;4.87;2.50;;;;;;;;;;5058351;28;20217;-71
2022/01/19 10:22:14;;;;;;;3.80;2.23;;;;;;;;;;5056934;28;20590;-71
2022/01/19 10:25:04;;;;;;;4.07;2.50;;;;;;;;;;5055244;28;20878;-69
2022/01/19 10:27:51;;;;;;;4.43;2.60;;;;;;;;;;5061602;28;20400;-72
2022/01/19 10:30:38;;;;;;;2.53;2.30;;;;;;;;;;5048834;28;20812;-71
2022/01/19 10:33:26;;;;;;;4.70;2.90;;;;;;;;;;5055843;28;20319;-71
2022/01/19 10:36:13;;;;;;;6.40;2.50;;;;;;;;;;5060594;28;20714;-71
2022/01/19 10:39:01;;;;;;;5.37;2.33;;;;;;;;;;5058552;28;20595;-71
2022/01/19 10:42:04;;;;;;;3.10;2.30;;;;;;;;;;5063682;28;20254;-71
2022/01/19 10:44:53;;;;;;;3.23;2.10;;;;;;;;;;5054511;28;20838;-71
2022/01/19 10:47:47;;;;;;;2.93;2.40;;;;;;;;;;5057240;28;20791;-71
2022/01/19 10:50:35;;;;;;;2.80;2.27;;;;;;;;;;5056142;28;20210;-72
2022/01/19 10:53:22;;;;;;;3.60;2.60;;;;;;;;;;5061675;28;20232;-71
2022/01/19 10:56:24;;;;;;;3.90;2.53;;;;;;;;;;5061410;28;20273;-71
2022/01/19 10:59:13;;;;;;;4.53;2.13;;;;;;;;;;5056524;28;20210;-71
2022/01/19 11:02:03;;;;;;;3.60;2.17;;;;;;;;;;5059761;28;20273;-71
2022/01/19 11:04:50;;;;;;;4.50;2.53;;;;;;;;;;5058515;28;20294;-72
2022/01/19 11:07:38;;;;;;;4.37;2.60;;;;;;;;;;5057966;28;20243;-71
2022/01/19 11:10:26;;;;;;;3.47;2.10;;;;;;;;;;5061978;28;20248;-71
2022/01/19 11:13:15;;;;;;;3.40;2.47;;;;;;;;;;5057538;28;20580;-71
2022/01/19 11:16:04;;;;;;;3.83;2.43;;;;;;;;;;5059566;28;20237;-71
2022/01/19 11:18:51;;;;;;;4.83;2.40;;;;;;;;;;5056770;28;20447;-71
2022/01/19 11:21:46;;;;;;;4.27;2.60;;;;;;;;;;5059741;28;20230;-71
2022/01/19 11:24:41;;;;;;;3.10;2.17;;;;;;;;;;5061199;28;20252;-71
2022/01/19 11:27:35;;;;;;;3.47;2.53;;;;;;;;;;5059434;28;20280;-71
2022/01/19 11:30:25;;;;;;;2.50;2.30;;;;;;;;;;5060824;28;20302;-72
2022/01/19 11:33:16;;;;;;;3.70;2.50;;;;;;;;;;5061228;28;20297;-72
2022/01/19 11:36:08;;;;;;;4.03;2.40;;;;;;;;;;5057756;28;20292;-72
2022/01/19 11:39:05;;;;;;;3.90;2.47;;;;;;;;;;5053871;28;20698;-71
2022/01/19 11:41:55;;;;;;;3.43;2.40;;;;;;;;;;5058042;28;20317;-72
2022/01/19 11:44:42;;;;;;;3.83;2.60;;;;;;;;;;5058306;28;20218;-73
2022/01/19 11:47:31;;;;;;;4.23;2.40;;;;;;;;;;5057090;28;20301;-71
2022/01/19 11:50:21;;;;;;;3.67;2.30;;;;;;;;;;5057407;28;20207;-71
2022/01/19 11:53:11;;;;;;;4.30;2.60;;;;;;;;;;5054228;28;20212;-71
2022/01/19 11:56:04;;;;;;;3.83;2.70;;;;;;;;;;5057972;28;20211;-71
2022/01/19 11:59:06;;;;;;;3.27;2.40;;;;;;;;;;5055768;28;20252;-71
2022/01/19 12:01:53;;;;;;;4.70;2.80;;;;;;;;;;5058453;28;20219;-71
2022/01/19 12:04:40;;;;;;;3.83;2.57;;;;;;;;;;5054517;28;20284;-71
2022/01/19 12:07:37;;;;;;;4.80;2.53;;;;;;;;;;5061990;28;20207;-71
2022/01/19 12:10:45;;;;;;;3.67;2.60;;;;;;;;;;5055736;28;20288;-71
2022/01/19 12:13:55;;;;;;;3.17;2.33;;;;;;;;;;5053799;28;20218;-71
2022/01/19 12:17:00;;;;;;;4.40;2.50;;;;;;;;;;5053730;28;20598;-71
2022/01/19 12:19:48;;;;;;;4.50;2.77;;;;;;;;;;5056686;28;20208;-71
2022/01/19 12:22:35;;;;;;;4.73;2.77;;;;;;;;;;5056451;28;20821;-71
2022/01/19 12:25:22;;;;;;;5.03;2.77;;;;;;;;;;5061353;28;20203;-71
2022/01/19 12:28:09;;;;;;;3.67;2.77;;;;;;;;;;5060267;28;20211;-71
2022/01/19 12:30:56;;;;;;;5.90;2.67;;;;;;;;;;5066906;28;20269;-72
2022/01/19 12:34:19;;;;;;;3.83;2.13;;;;;;;;;;5061706;28;20289;-71
2022/01/19 12:37:06;;;;;;;4.63;2.57;;;;;;;;;;5060754;28;20283;-72
2022/01/19 12:39:55;;;;;;;4.50;2.83;;;;;;;;;;5060349;28;20243;-72
2022/01/19 12:42:43;;;;;;;5.43;2.63;;;;;;;;;;5060368;28;20246;-71
2022/01/19 12:45:32;;;;;;;5.80;3.07;;;;;;;;;;5061539;28;20195;-71
2022/01/19 12:48:34;;;;;;;4.43;2.40;;;;;;;;;;5058815;28;20228;-71
2022/01/19 12:51:42;;;;;;;5.30;2.73;;;;;;;;;;5059669;28;20204;-71
2022/01/19 12:54:31;;;;;;;3.40;2.50;;;;;;;;;;5057509;28;20211;-71
2022/01/19 12:57:18;;;;;;;4.23;2.80;;;;;;;;;;5062053;28;20311;-72
2022/01/19 13:00:08;;;;;;;3.97;3.03;;;;;;;;;;5058889;28;20235;-71
2022/01/19 13:02:57;;;;;;;4.47;2.60;;;;;;;;;;5062336;28;20231;-71
2022/01/19 13:05:50;;;;;;;3.73;2.50;;;;;;;;;;5052133;28;20211;-71
2022/01/19 13:08:47;;;;;;;2.60;2.40;;;;;;;;;;5065561;28;20277;-72
2022/01/19 13:11:38;;;;;;;3.73;2.63;;;;;;;;;;5057729;28;20686;-71
2022/01/19 13:14:27;;;;;;;4.40;2.47;;;;;;;;;;5062292;28;20199;-71
2022/01/19 13:17:14;;;;;;;4.07;2.77;;;;;;;;;;5061941;28;20236;-71
2022/01/19 13:20:09;;;;;;;4.63;2.80;;;;;;;;;;5059939;28;20668;-71
2022/01/19 13:22:57;;;;;;;3.90;2.50;;;;;;;;;;5061687;28;20254;-71
2022/01/19 13:25:55;;;;;;;5.00;2.93;;;;;;;;;;5059256;28;20294;-71
2022/01/19 13:28:41;;;;;;;4.73;2.47;;;;;;;;;;5052599;28;20339;-73
2022/01/19 13:31:28;;;;;;;4.17;2.70;;;;;;;;;;5061287;28;20215;-72
2022/01/19 13:34:15;;;;;;;4.83;2.37;;;;;;;;;;5056905;28;20289;-72
2022/01/19 13:37:04;;;;;;;3.47;2.23;;;;;;;;;;5058495;28;20308;-71
2022/01/19 13:39:57;;;;;;;4.17;2.53;;;;;;;;;;5060024;28;20290;-71
2022/01/19 13:42:48;;;;;;;3.60;2.23;;;;;;;;;;5060612;28;20318;-71
2022/01/19 13:45:47;;;;;;;4.17;2.60;;;;;;;;;;5060268;28;20225;-71
2022/01/19 13:48:34;;;;;;;3.60;2.90;;;;;;;;;;5052409;28;20659;-71
2022/01/19 13:51:24;;;;;;;3.77;2.67;;;;;;;;;;5058647;28;20618;-72
2022/01/19 13:54:12;;;;;;;3.00;2.57;;;;;;;;;;5052041;28;20210;-72
2022/01/19 13:57:00;;;;;;;3.43;2.80;;;;;;;;;;5052898;28;20288;-72
2022/01/19 13:59:48;;;;;;;4.67;2.83;;;;;;;;;;5060079;28;20219;-71
2022/01/19 14:02:35;;;;;;;4.47;2.80;;;;;;;;;;5062070;28;20224;-71
2022/01/19 14:05:35;;;;;;;3.80;2.73;;;;;;;;;;5056650;28;20207;-71
2022/01/19 14:08:30;;;;;;;4.70;2.83;;;;;;;;;;5057244;28;20206;-70
2022/01/19 14:11:24;;;;;;;4.37;2.80;;;;;;;;;;5058610;28;20687;-71
2022/01/19 14:14:14;;;;;;;3.30;2.70;;;;;;;;;;5057590;28;20214;-72
2022/01/19 14:17:03;;;;;;;3.53;2.80;;;;;;;;;;5058549;28;20243;-72
2022/01/19 14:19:51;;;;;;;4.23;2.90;;;;;;;;;;5061800;28;20574;-72
2022/01/19 14:22:38;;;;;;;3.87;2.70;;;;;;;;;;5049678;28;20224;-71
2022/01/19 14:25:26;;;;;;;3.77;2.97;;;;;;;;;;5060629;28;20296;-71
2022/01/19 14:28:14;;;;;;;4.60;2.60;;;;;;;;;;5065315;28;20568;-72
2022/01/19 14:31:03;;;;;;;3.73;2.70;;;;;;;;;;5056080;28;20219;-72
2022/01/19 14:33:52;;;;;;;4.37;3.07;;;;;;;;;;5060396;28;20639;-71
2022/01/19 14:36:39;;;;;;;4.23;2.80;;;;;;;;;;5058623;28;20244;-72
2022/01/19 14:39:25;;;;;;;5.13;3.13;;;;;;;;;;5061458;28;20734;-69
2022/01/19 14:42:13;;;;;;;3.97;2.80;;;;;;;;;;5058739;28;20298;-72
2022/01/19 14:45:19;;;;;;;4.73;2.90;;;;;;;;;;5057190;28;20407;-71
2022/01/19 14:48:15;;;;;;;4.23;2.67;;;;;;;;;;5059582;28;20687;-72
2022/01/19 14:51:16;;;;;;;5.80;3.10;;;;;;;;;;5058751;28;20234;-72
2022/01/19 14:54:05;;;;;;;3.43;2.67;;;;;;;;;;5052374;28;20308;-71
2022/01/19 14:56:53;;;;;;;3.83;2.60;;;;;;;;;;5056949;28;20212;-71
2022/01/19 14:59:40;;;;;;;3.17;2.60;;;;;;;;;;5057689;28;20678;-72
2022/01/19 15:02:29;;;;;;;4.57;2.87;;;;;;;;;;5059138;28;20229;-72
2022/01/19 15:05:18;;;;;;;4.47;2.90;;;;;;;;;;5054482;28;20222;-71
2022/01/19 15:08:09;;;;;;;3.83;2.87;;;;;;;;;;5055647;28;20200;-73
2022/01/19 15:10:56;;;;;;;3.63;2.63;;;;;;;;;;5055127;28;20664;-72
2022/01/19 15:13:43;;;;;;;3.13;2.90;;;;;;;;;;5062378;28;20345;-74
2022/01/19 15:16:31;;;;;;;3.80;3.17;;;;;;;;;;5057746;28;20211;-72
2022/01/19 15:19:18;;;;;;;3.50;2.80;;;;;;;;;;5057976;28;20290;-71
2022/01/19 15:22:05;;;;;;;3.80;3.07;;;;;;;;;;5065768;28;20795;-72
2022/01/19 15:24:54;;;;;;;4.63;3.10;;;;;;;;;;5057737;28;20208;-72
2022/01/19 15:27:41;;;;;;;3.10;2.40;;;;;;;;;;5056947;28;20231;-72
2022/01/19 15:30:29;;;;;;;5.10;2.97;;;;;;;;;;5055187;28;20302;-72
2022/01/19 15:33:16;;;;;;;4.27;2.53;;;;;;;;;;5058587;28;20379;-72
2022/01/19 15:36:04;;;;;;;4.53;2.97;;;;;;;;;;5056698;28;20617;-72
2022/01/19 15:38:53;;;;;;;3.97;2.90;;;;;;;;;;5057308;28;20404;-71
2022/01/19 15:41:42;;;;;;;3.23;2.80;;;;;;;;;;5052500;28;20651;-72
2022/01/19 15:44:29;;;;;;;2.90;2.53;;;;;;;;;;5058472;28;20800;-72
2022/01/19 15:47:18;;;;;;;3.63;2.83;;;;;;;;;;5059324;28;20204;-72
2022/01/19 15:50:08;;;;;;;4.00;2.70;;;;;;;;;;5056251;28;20692;-72
2022/01/19 15:52:55;;;;;;;3.80;2.77;;;;;;;;;;5056442;28;20803;-72
2022/01/19 15:55:43;;;;;;;3.57;2.50;;;;;;;;;;5061124;28;20218;-72
2022/01/19 15:58:31;;;;;;;3.60;2.60;;;;;;;;;;5060767;28;20215;-72
2022/01/19 16:01:18;;;;;;;2.53;2.30;;;;;;;;;;5061046;28;20227;-72
2022/01/19 16:04:05;;;;;;;4.27;2.73;;;;;;;;;;5063442;28;20301;-71
2022/01/19 16:06:54;;;;;;;3.07;2.70;;;;;;;;;;5060803;28;20284;-72
2022/01/19 16:09:41;;;;;;;3.20;2.43;;;;;;;;;;5059912;28;20203;-72
2022/01/19 16:12:28;;;;;;;2.57;2.30;;;;;;;;;;5065548;28;20733;-71
2022/01/19 16:15:17;;;;;;;3.13;2.37;;;;;;;;;;5061354;28;20206;-72
2022/01/19 16:18:04;;;;;;;2.70;2.50;;;;;;;;;;5066248;28;20207;-72
2022/01/19 16:20:51;;;;;;;3.03;2.70;;;;;;;;;;5067324;28;20241;-71
2022/01/19 16:26:42;;;;;;;2.83;2.53;;;;;;;;;;5059652;28;20234;-72
2022/01/19 16:29:29;;;;;;;2.93;2.40;;;;;;;;;;5057084;28;20218;-72
2022/01/19 16:32:22;;;;;;;2.53;2.40;;;;;;;;;;5059099;28;20619;-71
2022/01/19 16:35:10;;;;;;;2.70;2.20;;;;;;;;;;5050728;28;20277;-72
2022/01/19 16:37:58;;;;;;;3.80;2.40;;;;;;;;;;5047049;28;20209;-71
2022/01/19 16:40:48;;;;;;;3.80;2.80;;;;;;;;;;5044649;28;20216;-71
2022/01/19 16:43:35;;;;;;;2.73;2.50;;;;;;;;;;5046967;28;20223;-72
2022/01/19 16:46:24;;;;;;;2.80;2.40;;;;;;;;;;5047410;28;20243;-72
2022/01/19 16:49:19;;;;;;;2.73;2.30;;;;;;;;;;5043560;28;21341;-71
2022/01/19 16:52:06;;;;;;;3.00;2.37;;;;;;;;;;5051008;28;20199;-71
2022/01/19 16:54:53;;;;;;;2.40;2.20;;;;;;;;;;5051674;28;20207;-71
2022/01/19 16:57:40;;;;;;;2.80;2.60;;;;;;;;;;5044170;28;20222;-71
2022/01/19 17:00:27;;;;;;;2.90;2.60;;;;;;;;;;5046437;28;20687;-71
2022/01/19 17:03:14;;;;;;;2.50;2.30;;;;;;;;;;5039134;28;20313;-72
2022/01/19 17:06:05;;;;;;;4.13;2.67;;;;;;;;;;5048264;28;20219;-71
2022/01/19 17:08:52;;;;;;;2.80;2.50;;;;;;;;;;5046592;28;20208;-72
2022/01/19 17:11:44;;;;;;;2.70;2.50;;;;;;;;;;5050593;28;20231;-72
2022/01/19 17:14:38;;;;;;;3.30;2.17;;;;;;;;;;5043787;28;20224;-72
2022/01/19 17:17:36;;;;;;;2.70;2.50;;;;;;;;;;5050808;28;20265;-72
2022/01/19 17:20:26;;;;;;;3.03;2.30;;;;;;;;;;5046012;28;20230;-72
2022/01/19 17:23:16;;;;;;;2.53;2.33;;;;;;;;;;5047145;28;20228;-72
2022/01/19 17:26:04;;;;;;;6.13;2.60;;;;;;;;;;5048966;28;20228;-72
2022/01/19 17:28:51;;;;;;;3.60;2.70;;;;;;;;;;5051165;28;20333;-72
2022/01/19 17:31:38;;;;;;;2.47;2.27;;;;;;;;;;5052237;28;20253;-72
2022/01/19 17:34:25;;;;;;;2.57;2.33;;;;;;;;;;5059146;28;20724;-71
2022/01/19 17:37:12;;;;;;;2.33;2.10;;;;;;;;;;5058214;28;20229;-72
2022/01/19 17:40:01;;;;;;;3.00;2.10;;;;;;;;;;5060110;28;20705;-72
2022/01/19 17:42:48;;;;;;;2.63;2.27;;;;;;;;;;5058678;28;20246;-72
2022/01/19 17:45:43;;;;;;;3.43;2.17;;;;;;;;;;5059275;28;20247;-71
2022/01/19 17:48:52;;;;;;;2.10;2.00;;;;;;;;;;5063084;28;20212;-72
2022/01/19 17:51:45;;;;;;;3.27;2.33;;;;;;;;;;5056885;28;20214;-71
2022/01/19 17:54:32;;;;;;;3.63;2.37;;;;;;;;;;5056503;28;20670;-72
2022/01/19 17:57:22;;;;;;;2.43;2.17;;;;;;;;;;5056604;28;20687;-71
2022/01/19 18:00:10;;;;;;;1.87;1.77;;;;;;;;;;5059538;28;20248;-72
2022/01/19 18:02:56;;;;;;;2.33;2.10;;;;;;;;;;5061251;28;20967;-72